createdAt,value
2023-03-20T00:01:13.779Z,55.92
2023-03-20T00:03:43.527Z,56.32
2023-03-20T00:06:16.931Z,56.20
2023-03-20T00:08:46.901Z,56.30
2023-03-20T00:11:29.168Z,55.82
2023-03-20T00:13:59.065Z,55.97
2023-03-20T00:16:32.812Z,55.79
2023-03-20T00:19:03.304Z,55.83
2023-03-20T00:21:32.094Z,55.78
2023-03-20T00:24:00.760Z,55.87
2023-03-20T00:26:34.819Z,55.46
2023-03-20T00:29:04.221Z,55.78
2023-03-20T00:31:34.507Z,55.67
2023-03-20T00:34:06.621Z,55.42
2023-03-20T00:36:35.132Z,55.53
2023-03-20T00:39:04.680Z,55.52
2023-03-20T00:41:36.954Z,55.62
2023-03-20T00:44:13.956Z,55.47
2023-03-20T00:46:42.645Z,55.35
2023-03-20T00:49:13.384Z,55.49
2023-03-20T00:51:42.490Z,55.85
2023-03-20T00:54:14.513Z,55.78
2023-03-20T00:56:45.836Z,55.62
2023-03-20T00:59:19.305Z,55.76
2023-03-20T01:01:47.671Z,55.96
2023-03-20T01:04:21.302Z,55.66
2023-03-20T01:06:49.680Z,55.74
2023-03-20T01:09:18.216Z,55.70
2023-03-20T01:11:47.344Z,55.95
2023-03-20T01:14:18.066Z,55.94
2023-03-20T01:16:46.497Z,56.16
2023-03-20T01:19:20.544Z,55.96
2023-03-20T01:21:50.755Z,55.95
2023-03-20T01:24:19.132Z,56.01
2023-03-20T01:26:47.792Z,55.81
2023-03-20T01:29:19.826Z,55.55
2023-03-20T01:31:48.469Z,55.76
2023-03-20T01:34:17.914Z,55.71
2023-03-20T01:36:50.228Z,55.63
2023-03-20T01:39:19.292Z,55.66
2023-03-20T01:41:49.073Z,55.74
2023-03-20T01:44:22.376Z,55.65
2023-03-20T01:46:55.593Z,55.68
2023-03-20T01:50:01.260Z,56.16
2023-03-20T01:52:31.227Z,56.05
2023-03-20T01:54:59.626Z,56.20
2023-03-20T01:57:28.357Z,56.33
2023-03-20T02:00:01.687Z,56.18
2023-03-20T02:02:33.360Z,56.48
2023-03-20T02:05:06.057Z,56.48
2023-03-20T02:07:36.720Z,56.27
2023-03-20T02:10:10.280Z,56.24
2023-03-20T02:13:02.987Z,56.45
2023-03-20T02:15:38.299Z,56.44
2023-03-20T02:18:13.067Z,56.49
2023-03-20T02:20:57.690Z,56.07
2023-03-20T02:23:51.089Z,56.16
2023-03-20T02:26:37.918Z,56.28
2023-03-20T02:29:39.032Z,56.07
2023-03-20T02:32:51.312Z,56.26
2023-03-20T02:35:45.897Z,56.04
2023-03-20T02:38:35.662Z,56.10
2023-03-20T02:41:14.740Z,56.16
2023-03-20T02:43:50.147Z,56.26
2023-03-20T02:46:28.060Z,56.03
2023-03-20T02:49:02.568Z,55.98
2023-03-20T02:51:37.446Z,55.87
2023-03-20T02:54:14.263Z,55.80
2023-03-20T02:56:53.178Z,55.71
2023-03-20T02:59:28.217Z,55.96
2023-03-20T03:02:03.004Z,55.81
2023-03-20T03:04:35.927Z,55.93
2023-03-20T03:07:07.021Z,56.07
2023-03-20T03:09:41.451Z,55.89
2023-03-20T03:12:13.837Z,56.28
2023-03-20T03:14:46.295Z,56.01
2023-03-20T03:17:19.666Z,55.94
2023-03-20T03:19:51.706Z,56.00
2023-03-20T03:22:21.427Z,56.29
2023-03-20T03:24:52.732Z,56.32
2023-03-20T03:27:24.829Z,56.32
2023-03-20T03:29:57.437Z,56.66
2023-03-20T03:32:30.054Z,56.59
2023-03-20T03:34:58.916Z,56.52
2023-03-20T03:37:42.598Z,56.35
2023-03-20T03:40:20.822Z,56.13
2023-03-20T03:42:54.952Z,56.70
2023-03-20T03:45:30.577Z,56.42
2023-03-20T03:48:04.337Z,56.70
2023-03-20T03:50:37.260Z,56.48
2023-03-20T03:53:11.543Z,56.76
2023-03-20T03:55:43.980Z,56.78
2023-03-20T03:58:17.417Z,56.59
2023-03-20T04:00:48.139Z,56.61
2023-03-20T04:03:17.187Z,56.75
2023-03-20T04:05:48.348Z,56.75
2023-03-20T04:08:17.427Z,56.66
2023-03-20T04:10:47.402Z,57.13
2023-03-20T04:13:16.512Z,57.11
2023-03-20T04:15:46.266Z,56.91
2023-03-20T04:18:17.708Z,57.16
2023-03-20T04:20:48.469Z,57.19
2023-03-20T04:23:18.126Z,56.93
2023-03-20T04:25:47.965Z,56.78
2023-03-20T04:28:19.580Z,57.02
2023-03-20T04:31:02.930Z,57.08
2023-03-20T04:33:54.320Z,57.32
2023-03-20T04:36:37.943Z,57.20
2023-03-20T04:39:08.710Z,57.10
2023-03-20T04:41:38.416Z,56.55
2023-03-20T04:44:06.776Z,56.54
2023-03-20T04:46:36.302Z,56.62
2023-03-20T04:49:09.118Z,56.31
2023-03-20T04:51:37.469Z,56.46
2023-03-20T04:54:05.710Z,56.29
2023-03-20T04:56:34.079Z,56.06
2023-03-20T04:59:21.483Z,56.20
2023-03-20T05:01:49.809Z,56.04
2023-03-20T05:04:18.226Z,55.91
2023-03-20T05:06:49.223Z,55.72
2023-03-20T05:09:20.174Z,55.47
2023-03-20T05:11:49.787Z,55.24
2023-03-20T05:14:38.120Z,55.07
2023-03-20T05:17:23.117Z,55.13
2023-03-20T05:20:13.469Z,55.29
2023-03-20T05:23:06.297Z,55.21
2023-03-20T05:25:55.000Z,55.20
2023-03-20T05:28:26.190Z,55.16
2023-03-20T05:31:16.371Z,55.02
2023-03-20T05:34:05.407Z,54.97
2023-03-20T05:36:55.877Z,55.22
2023-03-20T05:39:31.165Z,55.17
2023-03-20T05:42:19.616Z,55.04
2023-03-20T05:45:09.068Z,54.86
2023-03-20T05:47:56.482Z,54.67
2023-03-20T05:50:27.859Z,54.44
2023-03-20T05:53:34.336Z,54.30
2023-03-20T05:56:41.108Z,54.14
2023-03-20T05:59:29.746Z,54.14
2023-03-20T06:02:17.448Z,54.27
2023-03-20T06:04:55.789Z,54.24
2023-03-20T06:07:30.411Z,54.12
2023-03-20T06:10:06.670Z,54.09
2023-03-20T06:12:35.106Z,53.88
2023-03-20T06:15:03.534Z,53.91
2023-03-20T06:17:34.938Z,53.59
2023-03-20T06:20:07.385Z,53.62
2023-03-20T06:22:35.735Z,53.56
2023-03-20T06:25:04.099Z,53.46
2023-03-20T06:27:37.265Z,53.17
2023-03-20T06:30:06.186Z,53.06
2023-03-20T06:32:36.812Z,52.96
2023-03-20T06:35:10.248Z,52.94
2023-03-20T06:37:40.451Z,53.05
2023-03-20T06:40:14.523Z,53.01
2023-03-20T06:42:43.551Z,52.80
2023-03-20T06:45:13.379Z,52.53
2023-03-20T06:47:50.918Z,52.48
2023-03-20T06:50:20.853Z,52.43
2023-03-20T06:52:49.387Z,52.21
2023-03-20T06:55:40.843Z,52.07
2023-03-20T06:58:09.259Z,52.07
2023-03-20T07:00:38.640Z,51.88
2023-03-20T07:03:08.883Z,51.88
2023-03-20T07:05:40.436Z,51.69
2023-03-20T07:08:10.893Z,51.59
2023-03-20T07:10:39.676Z,51.48
2023-03-20T07:13:08.076Z,51.30
2023-03-20T07:15:38.750Z,51.34
2023-03-20T07:18:09.020Z,51.48
2023-03-20T07:20:39.293Z,51.52
2023-03-20T07:23:07.516Z,51.37
2023-03-20T07:25:42.810Z,51.50
2023-03-20T07:28:16.661Z,51.05
2023-03-20T07:30:51.311Z,50.90
2023-03-20T07:33:21.144Z,50.76
2023-03-20T07:35:55.305Z,50.65
2023-03-20T07:38:25.632Z,50.67
2023-03-20T07:41:06.751Z,50.69
2023-03-20T07:43:37.387Z,50.55
2023-03-20T07:46:44.598Z,50.56
2023-03-20T07:49:13.066Z,50.37
2023-03-20T07:51:42.692Z,50.54
2023-03-20T07:54:11.055Z,50.44
2023-03-20T07:56:39.455Z,50.24
2023-03-20T07:59:07.878Z,50.16
2023-03-20T08:01:36.171Z,50.08
2023-03-20T08:04:04.597Z,50.04
2023-03-20T08:06:33.279Z,49.73
2023-03-20T08:09:03.271Z,49.61
2023-03-20T08:11:34.207Z,49.31
2023-03-20T08:14:02.735Z,49.58
2023-03-20T08:16:31.043Z,49.56
2023-03-20T08:19:01.474Z,49.20
2023-03-20T08:21:29.978Z,48.86
2023-03-20T08:23:58.742Z,48.70
2023-03-20T08:26:28.443Z,48.59
2023-03-20T08:28:56.756Z,48.69
2023-03-20T08:31:25.065Z,48.50
2023-03-20T08:33:53.456Z,48.42
2023-03-20T08:36:21.813Z,48.63
2023-03-20T08:38:51.033Z,48.62
2023-03-20T08:41:19.961Z,48.31
2023-03-20T08:43:49.684Z,48.34
2023-03-20T08:46:18.033Z,48.47
2023-03-20T08:48:46.327Z,48.29
2023-03-20T08:51:14.817Z,48.17
2023-03-20T08:53:43.076Z,48.13
2023-03-20T08:56:12.190Z,48.03
2023-03-20T08:58:40.656Z,47.95
2023-03-20T09:01:11.621Z,47.96
2023-03-20T09:03:40.012Z,47.24
2023-03-20T09:06:09.710Z,47.31
2023-03-20T09:08:37.768Z,46.79
2023-03-20T09:11:08.137Z,46.25
2023-03-20T09:13:36.514Z,46.63
2023-03-20T09:16:04.898Z,46.58
2023-03-20T09:18:34.360Z,46.51
2023-03-20T09:21:02.406Z,45.64
2023-03-20T09:23:30.434Z,45.81
2023-03-20T09:25:58.576Z,45.35
2023-03-20T09:28:27.173Z,44.77
2023-03-20T09:30:57.598Z,44.89
2023-03-20T09:33:26.267Z,44.55
2023-03-20T09:35:55.673Z,44.80
2023-03-20T09:38:24.422Z,44.98
2023-03-20T09:40:55.205Z,43.94
2023-03-20T09:43:47.767Z,43.58
2023-03-20T09:46:27.249Z,42.71
2023-03-20T09:49:03.219Z,42.68
2023-03-20T09:51:39.381Z,42.52
2023-03-20T09:54:12.686Z,42.11
2023-03-20T09:56:41.162Z,41.04
2023-03-20T09:59:09.250Z,40.39
2023-03-20T10:01:44.923Z,40.63
2023-03-20T10:04:14.440Z,40.49
2023-03-20T10:06:43.925Z,40.45
2023-03-20T10:09:17.717Z,39.78
2023-03-20T10:12:04.076Z,38.01
2023-03-20T10:14:38.456Z,37.96
2023-03-20T10:17:20.779Z,37.92
2023-03-20T10:19:53.465Z,38.31
2023-03-20T10:22:29.261Z,38.10
2023-03-20T10:25:02.804Z,38.08
2023-03-20T10:27:36.098Z,39.00
2023-03-20T10:30:24.556Z,39.14
2023-03-20T10:33:01.305Z,38.72
2023-03-20T10:35:34.337Z,38.96
2023-03-20T10:38:14.218Z,38.77
2023-03-20T10:40:43.460Z,38.59
2023-03-20T10:43:17.847Z,38.24
2023-03-20T10:45:49.688Z,39.01
2023-03-20T10:48:24.850Z,38.46
2023-03-20T10:50:56.181Z,38.01
2023-03-20T10:53:35.744Z,37.59
2023-03-20T10:56:08.082Z,36.76
2023-03-20T10:58:39.642Z,36.90
2023-03-20T11:01:07.884Z,37.08
2023-03-20T11:03:39.821Z,37.63
2023-03-20T11:06:14.640Z,37.05
2023-03-20T11:08:49.319Z,37.33
2023-03-20T11:11:23.688Z,37.51
2023-03-20T11:13:51.897Z,38.29
2023-03-20T11:16:23.133Z,38.82
2023-03-20T11:18:52.559Z,38.63
2023-03-20T11:21:24.181Z,39.11
2023-03-20T11:23:54.239Z,39.42
2023-03-20T11:26:35.755Z,39.38
2023-03-20T11:29:06.316Z,39.50
2023-03-20T11:31:38.903Z,39.52
2023-03-20T11:34:26.398Z,39.53
2023-03-20T11:37:09.633Z,40.10
2023-03-20T11:39:42.188Z,40.69
2023-03-20T11:42:24.696Z,41.03
2023-03-20T11:44:59.677Z,41.29
2023-03-20T11:47:29.672Z,41.13
2023-03-20T11:49:59.566Z,41.27
2023-03-20T11:52:31.059Z,41.06
2023-03-20T11:55:03.252Z,40.97
2023-03-20T11:57:35.280Z,41.09
2023-03-20T12:00:07.324Z,41.08
2023-03-20T12:02:37.358Z,41.58
2023-03-20T12:05:20.742Z,41.65
2023-03-20T12:07:52.158Z,41.53
2023-03-20T12:10:22.974Z,41.53
2023-03-20T12:12:55.629Z,41.78
2023-03-20T12:15:27.116Z,41.81
2023-03-20T12:17:58.447Z,42.00
2023-03-20T12:20:36.869Z,42.75
2023-03-20T12:23:14.575Z,43.84
2023-03-20T12:25:51.561Z,44.51
2023-03-20T12:28:26.002Z,45.16
2023-03-20T12:31:07.292Z,45.46
2023-03-20T12:33:50.518Z,46.06
2023-03-20T12:36:25.478Z,46.70
2023-03-20T12:38:53.605Z,46.51
2023-03-20T12:41:27.697Z,46.31
2023-03-20T12:44:21.340Z,46.29
2023-03-20T12:47:10.954Z,46.41
2023-03-20T12:49:50.139Z,46.47
2023-03-20T12:52:27.124Z,46.43
2023-03-20T12:55:25.837Z,46.53
2023-03-20T12:58:07.266Z,46.59
2023-03-20T13:00:39.025Z,46.83
2023-03-20T13:03:27.668Z,46.33
2023-03-20T13:06:05.963Z,46.35
2023-03-20T13:09:00.357Z,45.16
2023-03-20T13:11:34.784Z,44.69
2023-03-20T13:14:13.270Z,45.74
2023-03-20T13:16:50.722Z,45.87
2023-03-20T13:19:27.296Z,46.64
2023-03-20T13:22:00.183Z,47.37
2023-03-20T13:24:41.403Z,47.41
2023-03-20T13:27:21.313Z,47.72
2023-03-20T13:29:56.129Z,47.56
2023-03-20T13:32:34.059Z,47.79
2023-03-20T13:35:18.629Z,47.79
2023-03-20T13:37:50.545Z,48.40
2023-03-20T13:40:23.126Z,48.29
2023-03-20T13:42:55.778Z,48.25
2023-03-20T13:45:32.379Z,48.08
2023-03-20T13:48:05.708Z,48.48
2023-03-20T13:50:43.137Z,48.15
2023-03-20T13:53:22.530Z,47.95
2023-03-20T13:55:56.254Z,48.03
2023-03-20T13:58:40.426Z,48.37
2023-03-20T14:01:15.961Z,48.72
2023-03-20T14:03:47.127Z,49.32
2023-03-20T14:06:42.119Z,50.14
2023-03-20T14:09:27.628Z,50.82
2023-03-20T14:11:57.835Z,51.78
2023-03-20T14:14:29.267Z,52.22
2023-03-20T14:17:18.019Z,52.71
2023-03-20T14:19:47.170Z,52.94
2023-03-20T14:22:21.294Z,53.40
2023-03-20T14:24:56.074Z,53.61
2023-03-20T14:27:42.956Z,54.32
2023-03-20T14:30:43.562Z,54.25
2023-03-20T14:33:31.605Z,54.93
2023-03-20T14:36:20.532Z,55.54
2023-03-20T14:38:55.217Z,55.68
2023-03-20T14:41:31.592Z,55.64
2023-03-20T14:44:09.777Z,55.42
2023-03-20T14:46:49.368Z,54.95
2023-03-20T14:49:27.690Z,55.18
2023-03-20T14:52:03.497Z,55.36
2023-03-20T14:54:32.299Z,55.61
2023-03-20T14:57:11.141Z,56.29
2023-03-20T14:59:39.594Z,55.87
2023-03-20T15:02:07.673Z,55.89
2023-03-20T15:04:40.247Z,55.55
2023-03-20T15:07:15.748Z,55.51
2023-03-20T15:09:46.549Z,55.68
2023-03-20T15:12:17.863Z,55.68
2023-03-20T15:14:52.328Z,55.24
2023-03-20T15:17:23.540Z,55.20
2023-03-20T15:20:01.600Z,54.99
2023-03-20T15:22:29.665Z,55.13
2023-03-20T15:24:58.822Z,55.07
2023-03-20T15:27:30.706Z,54.91
2023-03-20T15:30:01.514Z,54.99
2023-03-20T15:32:30.404Z,54.98
2023-03-20T15:34:59.886Z,55.16
2023-03-20T15:37:28.447Z,55.18
2023-03-20T15:39:59.230Z,55.36
2023-03-20T15:42:28.521Z,55.45
2023-03-20T15:44:57.881Z,55.36
2023-03-20T15:47:26.872Z,55.29
2023-03-20T15:50:02.661Z,55.39
2023-03-20T15:52:33.829Z,55.55
2023-03-20T15:55:05.499Z,56.09
2023-03-20T15:57:36.149Z,56.39
2023-03-20T16:00:07.445Z,56.61
2023-03-20T16:02:37.187Z,56.63
2023-03-20T16:05:12.828Z,56.38
2023-03-20T16:07:40.877Z,57.91
2023-03-20T16:10:19.421Z,56.64
2023-03-20T16:12:49.743Z,57.03
2023-03-20T16:15:19.543Z,57.32
2023-03-20T16:17:48.838Z,57.36
2023-03-20T16:20:19.562Z,57.02
2023-03-20T16:22:48.157Z,57.32
2023-03-20T16:25:19.423Z,57.43
2023-03-20T16:27:51.595Z,57.60
2023-03-20T16:30:23.504Z,57.85
2023-03-20T16:32:57.402Z,58.03
2023-03-20T16:35:31.045Z,58.27
2023-03-20T16:38:01.316Z,58.42
2023-03-20T16:40:38.315Z,58.96
2023-03-20T16:43:08.794Z,58.94
2023-03-20T16:45:38.349Z,58.87
2023-03-20T16:48:39.927Z,58.96
2023-03-20T16:51:17.671Z,58.99
2023-03-20T16:53:48.726Z,58.89
2023-03-20T16:56:23.081Z,59.08
2023-03-20T16:58:51.409Z,59.32
2023-03-20T17:01:22.015Z,59.27
2023-03-20T17:03:53.846Z,59.02
2023-03-20T17:06:37.534Z,58.90
2023-03-20T17:09:24.905Z,58.91
2023-03-20T17:12:01.191Z,59.12
2023-03-20T17:14:29.323Z,59.52
2023-03-20T17:16:57.990Z,59.66
2023-03-20T17:19:26.625Z,59.91
2023-03-20T17:21:57.705Z,59.60
2023-03-20T17:24:25.892Z,59.54
2023-03-20T17:26:56.230Z,59.55
2023-03-20T17:29:24.340Z,59.73
2023-03-20T17:31:53.038Z,59.68
2023-03-20T17:34:21.303Z,60.94
2023-03-20T17:36:49.626Z,61.79
2023-03-20T17:39:21.588Z,61.99
2023-03-20T17:41:49.763Z,62.27
2023-03-20T17:44:17.740Z,62.57
2023-03-20T17:46:57.810Z,62.79
2023-03-20T17:49:28.039Z,62.83
2023-03-20T17:51:56.760Z,62.99
2023-03-20T17:54:26.324Z,63.12
2023-03-20T18:01:01.632Z,62.75
2023-03-20T18:03:29.918Z,62.93
2023-03-20T18:05:58.308Z,62.94
2023-03-20T18:08:27.440Z,63.39
2023-03-20T18:10:57.024Z,63.56
2023-03-20T18:13:27.120Z,63.63
2023-03-20T18:15:57.922Z,63.49
2023-03-20T18:18:26.477Z,63.18
2023-03-20T18:20:57.283Z,63.08
2023-03-20T18:23:25.338Z,63.38
2023-03-20T18:25:53.424Z,63.55
2023-03-20T18:28:23.475Z,63.78
2023-03-20T18:30:52.026Z,63.73
2023-03-20T18:33:25.201Z,63.79
2023-03-20T18:35:53.472Z,63.73
2023-03-20T18:38:24.491Z,63.78
2023-03-20T18:40:52.807Z,63.58
2023-03-20T18:43:22.213Z,63.34
2023-03-20T18:45:50.251Z,63.60
2023-03-20T18:48:18.496Z,63.85
2023-03-20T18:50:50.934Z,63.83
2023-03-20T18:53:19.612Z,64.07
2023-03-20T18:55:47.626Z,63.96
2023-03-20T18:58:22.868Z,63.56
2023-03-20T19:00:51.726Z,63.98
2023-03-20T19:03:23.696Z,64.14
2023-03-20T19:05:52.493Z,63.82
2023-03-20T19:08:20.818Z,63.95
2023-03-20T19:10:49.559Z,63.81
2023-03-20T19:13:19.663Z,64.21
2023-03-20T19:15:49.483Z,64.25
2023-03-20T19:18:19.614Z,63.95
2023-03-20T19:20:48.837Z,63.92
2023-03-20T19:23:19.634Z,63.92
2023-03-20T19:25:49.216Z,64.25
2023-03-20T19:28:21.821Z,64.29
2023-03-20T19:30:53.984Z,64.14
2023-03-20T19:33:22.143Z,64.53
2023-03-20T19:36:06.081Z,64.28
2023-03-20T19:38:34.888Z,64.15
2023-03-20T19:41:03.886Z,64.14
2023-03-20T19:43:32.553Z,63.87
2023-03-20T19:46:02.031Z,63.95
2023-03-20T19:48:49.247Z,64.16
2023-03-20T19:51:20.874Z,64.28
2023-03-20T19:53:49.501Z,64.33
2023-03-20T19:56:19.290Z,64.44
2023-03-20T19:58:47.816Z,64.48
2023-03-20T20:01:19.905Z,64.51
2023-03-20T20:03:49.623Z,64.49
2023-03-20T20:06:21.205Z,64.34
2023-03-20T20:08:49.974Z,64.43
2023-03-20T20:11:18.445Z,64.19
2023-03-20T20:14:07.255Z,64.25
2023-03-20T20:16:36.638Z,64.16
2023-03-20T20:19:05.397Z,64.34
2023-03-20T20:24:22.346Z,65.04
2023-03-20T20:26:55.220Z,65.14
2023-03-20T20:29:31.753Z,64.79
2023-03-20T20:32:02.012Z,64.43
2023-03-20T20:40:08.783Z,64.43
2023-03-20T20:42:38.134Z,64.42
2023-03-20T20:45:08.785Z,64.66
2023-03-20T20:47:38.564Z,63.75
2023-03-20T20:50:08.796Z,63.41
2023-03-20T20:52:39.170Z,62.86
2023-03-20T20:55:22.200Z,62.60
2023-03-20T20:57:51.939Z,62.42
2023-03-20T21:00:27.552Z,62.32
2023-03-20T21:03:01.085Z,62.31
2023-03-20T21:05:31.084Z,62.33
2023-03-20T21:07:59.145Z,62.13
2023-03-20T21:10:27.488Z,62.28
2023-03-20T21:12:59.557Z,62.26
2023-03-20T21:15:28.236Z,62.47
2023-03-20T21:18:03.402Z,62.48
2023-03-20T21:20:33.945Z,62.50
2023-03-20T21:23:02.340Z,62.58
2023-03-20T21:25:47.781Z,62.31
2023-03-20T21:28:16.550Z,62.28
2023-03-20T21:31:12.190Z,62.24
2023-03-20T21:33:33.578Z,62.33
2023-03-20T21:36:04.131Z,62.71
2023-03-20T21:39:06.807Z,62.62
2023-03-20T21:41:20.727Z,62.44
2023-03-20T21:43:49.753Z,62.44
2023-03-20T21:58:21.289Z,62.46
2023-03-20T22:03:22.384Z,62.37
2023-03-20T22:15:09.240Z,62.21
2023-03-20T22:23:38.507Z,62.05
2023-03-20T22:26:39.173Z,62.12
2023-03-20T22:37:45.925Z,62.53
2023-03-20T22:42:53.282Z,62.20
2023-03-20T22:47:53.602Z,62.04
2023-03-20T22:50:21.683Z,62.09
2023-03-20T22:52:52.554Z,62.22
2023-03-20T22:55:21.055Z,62.12
2023-03-20T22:58:05.935Z,61.91
2023-03-20T23:00:35.450Z,61.85
2023-03-20T23:03:17.146Z,61.75
2023-03-20T23:05:48.293Z,61.95
2023-03-20T23:08:16.462Z,62.02
2023-03-20T23:10:45.976Z,62.29
2023-03-20T23:13:16.429Z,62.05
2023-03-20T23:15:46.568Z,61.98
2023-03-20T23:18:14.835Z,61.98
2023-03-20T23:20:43.181Z,62.15
2023-03-20T23:23:11.478Z,62.05
2023-03-20T23:25:40.609Z,61.89
2023-03-20T23:28:10.902Z,61.96
2023-03-20T23:30:56.743Z,62.04
2023-03-20T23:33:28.332Z,62.05
2023-03-20T23:36:13.999Z,62.01
2023-03-20T23:38:45.969Z,61.85
2023-03-20T23:41:14.457Z,61.79
2023-03-20T23:43:42.712Z,62.05
2023-03-20T23:46:12.536Z,61.92
2023-03-20T23:48:40.730Z,61.92
2023-03-20T23:51:09.120Z,61.86
2023-03-20T23:53:37.176Z,61.90
2023-03-20T23:56:05.601Z,61.85
2023-03-20T23:58:34.709Z,61.73
